Time;durP1;ratioP1;P1;durP2;ratioP2;P2;SDS_P1;SDS_P2;PMS_P1;PMS_P2;Temp;Humidity;BMP_temperature;BMP_pressure;BME280_temperature;BME280_humidity;BME280_pressure;Samples;Min_cycle;Max_cycle;Signal;HPM_P1;HPM_P2
2021/10/07 00:00:36;;;;;;;3.08;1.02;;;16.90;60.80;;;;;;20728129;28;81661;-69
2021/10/07 00:10:38;;;;;;;2.85;1.33;;;16.60;61.40;;;;;;20722098;28;79982;-71
2021/10/07 00:20:40;;;;;;;2.78;1.10;;;16.50;62.00;;;;;;20717148;28;80721;-72
2021/10/07 00:30:44;;;;;;;3.72;1.30;;;16.40;62.50;;;;;;20724849;28;81076;-70
2021/10/07 00:40:50;;;;;;;6.10;1.65;;;16.20;62.80;;;;;;20725462;28;80017;-71
2021/10/07 00:50:52;;;;;;;;;;;16.00;62.90;;;;;;20724044;28;81886;-71
2021/10/07 01:00:54;;;;;;;5.85;1.58;;;15.90;63.00;;;;;;20745500;28;80475;-71
2021/10/07 01:10:56;;;;;;;3.90;1.33;;;15.80;63.00;;;;;;20717486;28;80095;-71
2021/10/07 01:21:03;;;;;;;3.10;1.70;;;15.70;63.20;;;;;;20718091;28;80446;-70
2021/10/07 01:31:12;;;;;;;2.85;0.98;;;15.60;63.20;;;;;;20711404;28;82318;-70
2021/10/07 01:41:15;;;;;;;6.80;1.30;;;15.40;63.40;;;;;;20714526;28;80241;-71
2021/10/07 01:51:19;;;;;;;2.30;1.15;;;15.30;63.60;;;;;;20719574;28;80555;-72
2021/10/07 02:01:23;;;;;;;2.35;0.98;;;15.10;63.70;;;;;;20720583;28;81029;-72
2021/10/07 02:11:27;;;;;;;3.28;0.90;;;15.00;63.70;;;;;;20719107;28;81828;-72
2021/10/07 02:21:32;;;;;;;4.70;1.00;;;14.90;63.80;;;;;;20718763;28;80493;-72
2021/10/07 02:31:42;;;;;;;2.97;1.13;;;14.70;64.20;;;;;;20717571;28;80756;-71
2021/10/07 02:42:05;;;;;;;2.72;1.00;;;14.60;64.30;;;;;;20717215;28;80665;-70
2021/10/07 02:52:27;;;;;;;2.20;0.80;;;14.40;64.60;;;;;;20720288;28;83028;-70
2021/10/07 03:02:48;;;;;;;3.38;0.77;;;14.30;64.40;;;;;;20726295;28;83047;-71
2021/10/07 03:13:09;;;;;;;2.03;0.75;;;14.20;64.20;;;;;;20719846;28;80386;-71
2021/10/07 03:23:31;;;;;;;1.73;0.77;;;14.10;64.40;;;;;;20728512;28;80684;-71
2021/10/07 03:33:53;;;;;;;3.33;0.90;;;13.90;64.70;;;;;;20727980;28;81605;-70
2021/10/07 03:44:14;;;;;;;3.00;1.10;;;13.70;64.70;;;;;;20717970;28;80378;-70
2021/10/07 03:54:35;;;;;;;2.78;1.10;;;13.70;64.80;;;;;;20721246;28;80702;-70
2021/10/07 04:04:56;;;;;;;4.00;1.00;;;13.70;64.80;;;;;;20730088;28;80983;-70
2021/10/07 04:15:20;;;;;;;2.25;1.05;;;13.60;64.80;;;;;;20762616;28;82546;-72
2021/10/07 04:25:32;;;;;;;6.35;1.48;;;13.50;65.10;;;;;;20784341;28;80789;-71
2021/10/07 04:35:53;;;;;;;3.47;1.45;;;13.50;65.20;;;;;;20797880;28;81785;-71
2021/10/07 04:46:18;;;;;;;5.32;1.35;;;13.40;65.40;;;;;;20786979;28;80357;-70
2021/10/07 04:56:39;;;;;;;6.20;1.50;;;13.40;65.50;;;;;;20766565;28;80807;-71
2021/10/07 05:06:53;;;;;;;2.70;1.25;;;13.40;65.50;;;;;;20723849;28;79955;-71
2021/10/07 05:17:09;;;;;;;5.55;1.80;;;13.40;65.60;;;;;;20721095;28;80608;-72
2021/10/07 05:27:17;;;;;;;4.60;2.28;;;13.40;65.60;;;;;;20721465;28;81967;-73
2021/10/07 05:37:30;;;;;;;3.73;1.93;;;13.40;65.90;;;;;;20785385;28;80823;-69
2021/10/07 05:47:39;;;;;;;3.88;2.05;;;13.40;65.90;;;;;;20788398;28;81576;-69
2021/10/07 05:57:46;;;;;;;7.05;1.75;;;13.30;66.00;;;;;;20784910;28;81795;-70
2021/10/07 06:07:49;;;;;;;4.20;1.43;;;13.10;66.00;;;;;;20791400;28;82232;-63
2021/10/07 06:17:52;;;;;;;4.07;1.93;;;12.90;66.30;;;;;;20791213;28;81222;-65
2021/10/07 06:27:54;;;;;;;13.15;3.90;;;12.80;66.30;;;;;;20787606;28;81671;-62
2021/10/07 06:37:57;;;;;;;5.87;2.30;;;12.80;66.20;;;;;;20790123;28;81072;-61
2021/10/07 06:48:01;;;;;;;6.68;2.50;;;12.80;66.00;;;;;;20789691;28;80968;-61
2021/10/07 06:58:03;;;;;;;6.63;2.03;;;12.90;65.70;;;;;;20781525;28;81714;-61
2021/10/07 07:08:06;;;;;;;;;;;13.00;65.20;;;;;;20783193;28;80567;-63
2021/10/07 07:18:08;;;;;;;12.43;2.60;;;13.10;64.80;;;;;;20807508;28;80699;-61
2021/10/07 07:28:10;;;;;;;9.38;2.67;;;13.30;64.20;;;;;;20784117;28;81002;-61
2021/10/07 07:38:13;;;;;;;6.20;2.05;;;13.70;63.00;;;;;;20787483;28;81854;-62
2021/10/07 07:48:18;;;;;;;7.68;2.85;;;14.10;61.50;;;;;;20797269;28;81892;-60
2021/10/07 07:58:22;;;;;;;14.73;2.97;;;14.30;60.90;;;;;;20796482;28;81380;-61
2021/10/07 08:08:23;;;;;;;7.57;3.07;;;14.70;59.40;;;;;;20798599;28;81726;-62
2021/10/07 08:18:27;;;;;;;6.60;3.03;;;15.10;58.70;;;;;;20799688;28;81004;-62
2021/10/07 08:28:30;;;;;;;8.37;3.60;;;15.50;57.00;;;;;;20798426;28;81186;-61
2021/10/07 08:38:33;;;;;;;;;;;16.00;55.90;;;;;;20798011;28;80801;-61
2021/10/07 08:48:35;;;;;;;8.68;3.10;;;16.50;55.10;;;;;;20816122;28;79205;-61
2021/10/07 08:58:37;;;;;;;7.47;3.38;;;17.00;52.60;;;;;;20796582;28;80651;-62
2021/10/07 09:08:48;;;;;;;9.57;4.13;;;17.50;51.30;;;;;;20795298;28;81955;-61
2021/10/07 09:18:51;;;;;;;15.35;2.92;;;18.00;49.90;;;;;;20790569;28;81274;-61
2021/10/07 09:28:59;;;;;;;8.63;3.85;;;18.80;47.90;;;;;;20792156;28;81168;-62
2021/10/07 09:39:04;;;;;;;7.90;3.03;;;20.30;44.90;;;;;;20792646;28;81333;-60
2021/10/07 09:49:14;;;;;;;10.88;3.53;;;22.90;38.80;;;;;;20792681;28;80830;-61
2021/10/07 09:59:18;;;;;;;11.13;2.33;;;25.00;34.70;;;;;;20792242;28;81685;-59
2021/10/07 10:09:24;;;;;;;10.48;1.88;;;27.50;30.50;;;;;;20782836;28;81025;-60
2021/10/07 10:19:26;;;;;;;7.68;1.30;;;29.60;25.70;;;;;;20783193;28;81805;-63
2021/10/07 10:29:33;;;;;;;5.80;1.30;;;31.90;23.10;;;;;;20790682;28;81820;-62
2021/10/07 10:39:39;;;;;;;3.35;1.38;;;34.80;20.70;;;;;;20784717;28;81902;-62
2021/10/07 10:49:41;;;;;;;3.80;1.55;;;37.30;18.70;;;;;;20789435;28;81849;-62
2021/10/07 10:59:46;;;;;;;10.27;1.60;;;39.70;16.50;;;;;;20789037;28;80705;-61
2021/10/07 11:09:56;;;;;;;3.03;1.23;;;42.00;15.10;;;;;;20788359;28;81911;-60
2021/10/07 11:19:59;;;;;;;4.10;1.50;;;41.00;15.80;;;;;;20799539;28;81089;-61
2021/10/07 11:30:03;;;;;;;7.25;1.20;;;38.60;17.90;;;;;;20799165;28;81716;-62
2021/10/07 11:40:26;;;;;;;5.35;1.65;;;43.30;14.10;;;;;;20801153;28;81124;-60
2021/10/07 11:50:28;;;;;;;9.90;2.10;;;40.50;15.70;;;;;;20801071;28;82199;-61
2021/10/07 12:00:47;;;;;;;4.43;1.88;;;37.40;18.00;;;;;;20797777;28;82180;-61
2021/10/07 12:10:56;;;;;;;7.25;2.40;;;39.10;17.00;;;;;;20799797;28;81807;-60
2021/10/07 12:21:09;;;;;;;5.80;2.10;;;37.50;17.60;;;;;;20799066;28;81761;-61
2021/10/07 12:31:20;;;;;;;5.75;2.42;;;34.20;20.10;;;;;;20788987;28;82217;-62
2021/10/07 12:41:38;;;;;;;9.20;1.47;;;33.40;21.30;;;;;;20790029;28;82120;-66
2021/10/07 12:51:46;;;;;;;5.07;1.77;;;32.80;21.20;;;;;;20793352;28;81242;-62
2021/10/07 13:01:47;;;;;;;6.68;1.70;;;32.60;21.00;;;;;;20794814;28;80800;-63
2021/10/07 13:11:51;;;;;;;2.20;1.00;;;37.00;17.40;;;;;;20794959;28;80790;-62
2021/10/07 13:21:53;;;;;;;7.28;2.15;;;34.90;18.10;;;;;;20789726;28;80618;-62
2021/10/07 13:31:57;;;;;;;3.63;1.42;;;35.40;17.60;;;;;;20787852;28;81690;-61
2021/10/07 13:41:59;;;;;;;2.70;0.90;;;34.90;18.10;;;;;;20794357;28;81814;-64
2021/10/07 13:52:01;;;;;;;7.72;2.38;;;32.80;18.50;;;;;;20802946;28;81799;-66
2021/10/07 14:02:05;;;;;;;6.18;0.82;;;32.20;17.80;;;;;;20804002;28;81873;-64
2021/10/07 14:12:08;;;;;;;2.17;0.90;;;34.40;16.60;;;;;;20803654;28;81786;-65
2021/10/07 14:22:12;;;;;;;5.15;1.92;;;42.70;12.50;;;;;;20803658;28;80798;-63
2021/10/07 14:32:17;;;;;;;4.38;1.02;;;39.00;14.20;;;;;;20802044;28;80748;-62
2021/10/07 14:42:19;;;;;;;7.93;1.40;;;35.50;16.60;;;;;;20801602;28;82561;-65
2021/10/07 14:52:21;;;;;;;4.20;0.70;;;34.70;16.20;;;;;;20790247;28;81912;-63
2021/10/07 15:02:23;;;;;;;2.22;0.70;;;33.50;15.80;;;;;;20798561;28;80946;-62
2021/10/07 15:12:25;;;;;;;3.55;0.88;;;32.80;17.30;;;;;;20799659;28;80967;-63
2021/10/07 15:22:28;;;;;;;5.43;1.48;;;33.60;16.60;;;;;;20795887;28;81101;-62
2021/10/07 15:32:31;;;;;;;5.03;1.00;;;33.20;17.60;;;;;;20793938;28;81740;-64
2021/10/07 15:42:34;;;;;;;2.05;0.90;;;32.00;17.90;;;;;;20775466;28;81255;-62
2021/10/07 15:52:36;;;;;;;1.63;0.82;;;33.10;17.70;;;;;;20737109;28;81747;-62
2021/10/07 16:02:39;;;;;;;1.95;0.80;;;32.50;17.60;;;;;;20721155;28;81880;-65
2021/10/07 16:12:42;;;;;;;3.30;0.90;;;30.20;19.00;;;;;;20738645;28;81913;-62
2021/10/07 16:22:44;;;;;;;4.00;0.68;;;28.90;19.60;;;;;;20793228;28;81568;-64
2021/10/07 16:32:47;;;;;;;1.90;1.05;;;27.80;20.70;;;;;;20739048;28;80825;-62
2021/10/07 16:42:50;;;;;;;3.13;0.75;;;27.20;21.10;;;;;;20731006;28;81232;-62
2021/10/07 16:52:52;;;;;;;3.33;0.80;;;26.60;21.50;;;;;;20725871;28;81739;-61
2021/10/07 17:02:54;;;;;;;2.58;0.90;;;26.20;23.10;;;;;;20735904;28;80951;-63
2021/10/07 17:12:57;;;;;;;1.52;0.68;;;25.70;23.00;;;;;;20719714;28;80321;-63
2021/10/07 17:22:59;;;;;;;4.80;1.45;;;25.40;22.90;;;;;;20743178;28;80180;-61
2021/10/07 17:33:01;;;;;;;4.75;1.33;;;25.00;24.70;;;;;;20726992;28;81813;-70
2021/10/07 17:43:03;;;;;;;5.90;1.80;;;24.50;26.20;;;;;;20722443;28;80762;-73
2021/10/07 17:53:05;;;;;;;4.55;1.25;;;24.10;26.90;;;;;;20768666;28;81057;-72
2021/10/07 18:03:08;;;;;;;6.30;2.20;;;23.80;27.10;;;;;;20788431;28;80118;-71
2021/10/07 18:13:10;;;;;;;7.20;2.20;;;23.50;28.40;;;;;;20796448;28;80516;-73
2021/10/07 18:23:14;;;;;;;10.55;2.20;;;23.20;29.50;;;;;;20791452;28;82136;-73
2021/10/07 18:33:16;;;;;;;7.40;1.70;;;22.80;31.00;;;;;;20797522;28;81600;-74
2021/10/07 18:43:18;;;;;;;5.63;3.38;;;22.50;30.60;;;;;;20796439;28;80802;-76
2021/10/07 18:53:20;;;;;;;10.82;3.20;;;22.20;32.20;;;;;;20789713;28;80892;-75
2021/10/07 19:03:26;;;;;;;11.57;4.10;;;21.80;33.70;;;;;;20785972;28;80737;-74
2021/10/07 19:13:29;;;;;;;15.38;6.15;;;21.60;34.70;;;;;;20770311;28;81921;-77
2021/10/07 19:23:31;;;;;;;9.90;5.32;;;21.30;35.50;;;;;;20789619;28;81957;-74
2021/10/07 19:33:33;;;;;;;12.00;5.23;;;21.00;37.10;;;;;;20801052;28;80978;-73
2021/10/07 19:43:35;;;;;;;;;;;20.90;37.50;;;;;;20814077;28;81661;-73
2021/10/07 19:53:40;;;;;;;13.35;6.60;;;20.60;37.80;;;;;;20833200;28;81142;-76
2021/10/07 20:03:42;;;;;;;17.95;5.85;;;20.50;38.50;;;;;;20811713;28;80004;-74
2021/10/07 20:13:45;;;;;;;12.10;5.83;;;20.40;38.80;;;;;;20801024;28;80810;-75
2021/10/07 20:23:46;;;;;;;12.73;6.00;;;20.20;39.20;;;;;;20807749;28;81801;-76
2021/10/07 20:43:52;;;;;;;13.30;4.57;;;19.90;40.10;;;;;;20725940;28;81096;-74
2021/10/07 20:53:57;;;;;;;11.87;3.90;;;19.80;40.60;;;;;;20737746;28;80560;-74
2021/10/07 21:03:58;;;;;;;11.93;3.83;;;19.60;41.00;;;;;;20745505;28;81818;-73
2021/10/07 21:14:00;;;;;;;8.75;3.53;;;19.50;41.40;;;;;;20767127;28;82302;-75
2021/10/07 21:24:02;;;;;;;5.55;3.03;;;19.20;41.40;;;;;;20763628;28;80873;-74
2021/10/07 21:34:05;;;;;;;7.43;2.67;;;18.90;41.30;;;;;;20736999;28;81765;-74
2021/10/07 21:44:07;;;;;;;5.05;2.00;;;18.80;42.20;;;;;;20721883;28;80406;-75
2021/10/07 21:54:13;;;;;;;5.78;1.80;;;18.60;42.30;;;;;;20721821;28;80730;-75
2021/10/07 22:04:16;;;;;;;7.88;2.08;;;18.30;42.20;;;;;;20739755;28;81617;-72
2021/10/07 22:14:19;;;;;;;6.00;1.60;;;18.10;42.50;;;;;;20732211;28;80880;-74
2021/10/07 22:24:22;;;;;;;7.57;1.37;;;17.90;42.80;;;;;;20757206;28;81797;-73
2021/10/07 22:34:25;;;;;;;2.90;1.83;;;17.80;43.00;;;;;;20800428;28;81742;-71
2021/10/07 22:44:31;;;;;;;4.55;1.33;;;17.60;43.30;;;;;;20799292;28;81175;-73
2021/10/07 22:54:33;;;;;;;3.80;1.60;;;17.40;44.10;;;;;;20798677;28;81981;-73
2021/10/07 23:04:35;;;;;;;3.33;1.57;;;17.20;44.70;;;;;;20798830;27;80945;-73
2021/10/07 23:14:39;;;;;;;5.88;1.38;;;17.00;44.90;;;;;;20809889;28;81117;-74
2021/10/07 23:24:42;;;;;;;3.00;1.00;;;16.90;44.70;;;;;;20812268;28;80257;-72
2021/10/07 23:34:45;;;;;;;4.20;1.27;;;16.70;45.20;;;;;;20810803;28;80697;-73
2021/10/07 23:44:47;;;;;;;6.07;0.98;;;16.50;45.60;;;;;;20810720;28;81906;-73
2021/10/07 23:54:49;;;;;;;4.70;1.30;;;16.40;46.00;;;;;;20810928;28;81841;-72
